Avo Tiburcio — CUMJ9 — position and weather

sailwx.info

Track history (hours):
 
Tides and Currents Weather Stations Pressure Air Temp Water Temp Dewpoint Dewpoint Depression Visibility Wind Speed Wind Dir Waves Ship Positions

Avo Tiburcio

Last reported at 2017-Dec-22 07:57 UTC. Time now 2018-Feb-18 05:33 UTC.
Position N 37°08' W 008°32'.
Warning: this ship's position is 57 days out of date.

Length 24 m.

Type: Fishing. MMSI: 263415870.

Date/timePositionNaut miles runAvg speedWind from/ knotsBaromVisibWave heightAir tempDewpointWater temp
2017-Dec-22 07:57N 37°08' W 008°32'3 6.0
2017-Dec-22 07:30N 37°05' W 008°33'611.1
2017-Dec-22 07:00N 37°04' W 008°40'35 7.6
2017-Dec-22 02:22N 37°34' W 009°02'411.3
2017-Dec-22 02:00N 37°38' W 009°02'611.3
2017-Dec-22 01:30N 37°44' W 009°00'611.6
2017-Dec-22 01:00N 37°49' W 008°56'510.8
2017-Dec-22 00:30N 37°54' W 008°54'4 7.4
2017-Dec-22 00:00N 37°57' W 008°52'0 0.0
2017-Dec-21 11:04N 37°57' W 008°52'0 0.0
2017-Dec-21 11:01N 37°57' W 008°52'2 3.2
2017-Dec-21 10:31N 37°58' W 008°54'3 5.7
2017-Dec-21 10:00N 38°01' W 008°53'0 0.3
2017-Dec-21 09:31N 38°01' W 008°52'0 0.4
2017-Dec-21 09:01N 38°01' W 008°52'0 0.4
2017-Dec-21 08:30N 38°01' W 008°52'0 0.2
2017-Dec-21 08:00N 38°01' W 008°52'1 1.7
2017-Dec-21 07:31N 38°02' W 008°51'0 0.3
2017-Dec-21 07:01N 38°02' W 008°51'0 0.2
2017-Dec-21 06:30N 38°02' W 008°51'1 2.3
2017-Dec-21 06:01N 38°01' W 008°52'2 4.4
2017-Dec-21 05:30N 37°59' W 008°53'2 4.5
2017-Dec-21 05:00N 37°57' W 008°52'0 0.0
2017-Dec-20 14:30N 37°57' W 008°52'3 5.2
2017-Dec-20 14:00N 37°60' W 008°53'2 4.2
2017-Dec-20 13:30N 38°02' W 008°53'0 0.3
2017-Dec-20 13:00N 38°02' W 008°53'0 0.5
2017-Dec-20 12:30N 38°02' W 008°53'2 3.9
2017-Dec-20 12:00N 38°02' W 008°50'3 6.8
2017-Dec-20 11:30N 38°06' W 008°49'0 0.6
2017-Dec-20 11:00N 38°06' W 008°49'0 0.1
2017-Dec-20 10:30N 38°06' W 008°49'1 1.1
2017-Dec-20 10:00N 38°06' W 008°50'0 0.2
2017-Dec-20 09:30N 38°06' W 008°50'1 1.7
2017-Dec-20 09:00N 38°05' W 008°50'1 1.5
2017-Dec-20 08:30N 38°05' W 008°49'0 0.2
2017-Dec-20 08:00N 38°05' W 008°49'0 0.5
2017-Dec-20 07:30N 38°05' W 008°49'3 6.0
2017-Dec-20 07:00N 38°02' W 008°51'4 7.6
2017-Dec-20 06:30N 37°59' W 008°54'2 4.9
2017-Dec-20 06:00N 37°57' W 008°52'0 0.0
2017-Dec-19 15:03N 37°57' W 008°52'0 0.0
2017-Dec-19 15:01N 37°57' W 008°52'0 0.2
2017-Dec-19 14:31N 37°57' W 008°52'3 5.2
2017-Dec-19 14:01N 37°59' W 008°55'3 6.1
2017-Dec-19 13:31N 38°01' W 008°52'0 0.5
2017-Dec-19 13:01N 38°02' W 008°52'1 1.6
2017-Dec-19 12:31N 38°01' W 008°51'3 6.1
2017-Dec-19 12:01N 38°04' W 008°51'0 0.9
2017-Dec-19 11:31N 38°04' W 008°50'0 0.2
2017-Dec-19 11:00N 38°04' W 008°50'1 2.6
2017-Dec-19 10:30N 38°05' W 008°49'2 3.4
2017-Dec-19 10:01N 38°03' W 008°50'2 4.6
2017-Dec-19 09:30N 38°01' W 008°51'1 2.0
2017-Dec-19 09:00N 38°01' W 008°52'0 0.2
2017-Dec-19 08:31N 38°01' W 008°52'1 1.5
2017-Dec-19 08:01N 38°01' W 008°51'2 3.5
2017-Dec-19 07:31N 37°60' W 008°53'0 0.7
2017-Dec-19 07:01N 38°00' W 008°53'2 3.9
2017-Dec-19 06:31N 37°59' W 008°54'2 4.7
2017-Dec-19 06:01N 37°57' W 008°52'0 0.0
2017-Dec-18 14:35N 37°57' W 008°52'0 1.0
2017-Dec-18 14:30N 37°57' W 008°52'1 2.5
2017-Dec-18 14:00N 37°56' W 008°53'3 5.6
2017-Dec-18 13:31N 37°59' W 008°55'3 5.9
2017-Dec-18 13:00N 38°01' W 008°52'0 0.3
2017-Dec-18 12:30N 38°01' W 008°52'0 0.2
2017-Dec-18 12:00N 38°01' W 008°52'1 1.7
2017-Dec-18 11:31N 38°01' W 008°51'5 9.3
2017-Dec-18 11:00N 38°06' W 008°49'611.2
2017-Dec-18 10:31N 38°11' W 008°48'3 6.2
2017-Dec-18 10:01N 38°14' W 008°48'2 1.8
2017-Dec-18 08:41N 38°12' W 008°48'210.6
2017-Dec-18 08:30N 38°10' W 008°48'510.5
2017-Dec-18 08:00N 38°05' W 008°49'0 1.0
2017-Dec-18 07:30N 38°04' W 008°49'3 6.9
2017-Dec-18 07:00N 38°01' W 008°51'5 9.0
2017-Dec-18 06:30N 37°57' W 008°54'  
2017-Dec-15 12:56N 37°57' W 008°52'3 7.8
2017-Dec-15 12:30N 37°55' W 008°50'4 7.6
2017-Dec-15 12:00N 37°57' W 008°54'2 4.6
2017-Dec-15 11:30N 37°59' W 008°55'5 9.1
2017-Dec-15 11:00N 38°02' W 008°51'4 7.7
2017-Dec-15 10:30N 38°05' W 008°50'0 0.2
2017-Dec-15 10:00N 38°05' W 008°50'1 1.8
2017-Dec-15 09:30N 38°05' W 008°49'4 7.9
2017-Dec-15 09:00N 38°01' W 008°51'4 7.8
2017-Dec-15 08:30N 37°59' W 008°55'4 7.7
2017-Dec-15 08:00N 38°01' W 008°51'0 0.1
2017-Dec-15 07:30N 38°01' W 008°51'0 0.2
2017-Dec-15 07:00N 38°01' W 008°51'3 5.0
2017-Dec-15 06:30N 37°59' W 008°54'2 0.1
2017-Dec-14 13:01N 37°57' W 008°52'0 0.0
2017-Dec-14 13:00N 37°57' W 008°52'3 5.1
2017-Dec-14 12:30N 37°59' W 008°55'510.1
2017-Dec-14 12:00N 38°03' W 008°51'2 4.0
2017-Dec-14 11:30N 38°04' W 008°50'0 0.1
2017-Dec-14 11:00N 38°04' W 008°50'1 1.2
2017-Dec-14 10:30N 38°04' W 008°50'0 0.6
2017-Dec-14 10:01N 38°04' W 008°50'0 0.1
2017-Dec-14 09:30N 38°04' W 008°50'1 1.9
2017-Dec-14 09:01N 38°05' W 008°49'0 0.2
2017-Dec-14 08:31N 38°05' W 008°49'0 0.2
2017-Dec-14 08:01N 38°05' W 008°49'1 2.8
2017-Dec-14 07:31N 38°03' W 008°50'4 8.5
2017-Dec-14 07:01N 37°60' W 008°53'3 6.2
2017-Dec-14 06:31N 37°57' W 008°55'2 3.6
2017-Dec-14 06:01N 37°57' W 008°52'0 0.0
2017-Dec-13 13:52N 37°57' W 008°52'1 3.7
2017-Dec-13 13:30N 37°57' W 008°54'3 5.3
2017-Dec-13 13:00N 37°59' W 008°56'5 9.3
2017-Dec-13 12:30N 38°02' W 008°51'4 9.0
2017-Dec-13 12:00N 38°06' W 008°49'511.0
2017-Dec-13 11:30N 38°11' W 008°48'3 6.5
2017-Dec-13 11:00N 38°15' W 008°47'1 0.6
2017-Dec-13 09:37N 38°14' W 008°48'111.1
2017-Dec-13 09:30N 38°13' W 008°48'510.2
2017-Dec-13 09:00N 38°08' W 008°49'5 9.4
2017-Dec-13 08:30N 38°03' W 008°50'3 6.2
2017-Dec-13 08:00N 38°01' W 008°53'0 0.2
2017-Dec-13 07:30N 38°01' W 008°53'0 0.7
2017-Dec-13 07:00N 38°01' W 008°53'3 6.7
2017-Dec-13 06:30N 37°59' W 008°55'3 6.1
2017-Dec-13 06:00N 37°57' W 008°52'0 0.0
2017-Dec-12 13:30N 37°57' W 008°52'0 0.0
2017-Dec-12 13:00N 37°57' W 008°52'2 3.7
2017-Dec-12 12:31N 37°58' W 008°54'510.4
2017-Dec-12 12:01N 38°02' W 008°51'510.9
2017-Dec-12 11:31N 38°08' W 008°50'4 8.5
2017-Dec-12 11:00N 38°12' W 008°48'0 0.3
2017-Dec-12 10:31N 38°12' W 008°48'0 0.3
2017-Dec-12 10:01N 38°12' W 008°48'2 3.4
2017-Dec-12 09:31N 38°14' W 008°48'  
Track history (hours):
 
Tides and Currents Weather Stations Pressure Air Temp Water Temp Dewpoint Dewpoint Depression Visibility Wind Speed Wind Dir Waves Ship Positions

Avo Tiburcio

Last reported at 2017-Dec-22 07:57 UTC. Time now 2018-Feb-18 05:33 UTC.
Position N 37°08' W 008°32'.
Warning: this ship's position is 57 days out of date.

Length 24 m.

Type: Fishing. MMSI: 263415870.

Date/timePositionNaut miles runAvg speedWind from/ knotsBaromVisibWave heightAir tempDewpointWater temp
2017-Dec-22 07:57N 37°08' W 008°32'3 6.0
2017-Dec-22 07:30N 37°05' W 008°33'611.1
2017-Dec-22 07:00N 37°04' W 008°40'35 7.6
2017-Dec-22 02:22N 37°34' W 009°02'411.3
2017-Dec-22 02:00N 37°38' W 009°02'611.3
2017-Dec-22 01:30N 37°44' W 009°00'611.6
2017-Dec-22 01:00N 37°49' W 008°56'510.8
2017-Dec-22 00:30N 37°54' W 008°54'4 7.4
2017-Dec-22 00:00N 37°57' W 008°52'0 0.0
2017-Dec-21 11:04N 37°57' W 008°52'0 0.0
2017-Dec-21 11:01N 37°57' W 008°52'2 3.2
2017-Dec-21 10:31N 37°58' W 008°54'3 5.7
2017-Dec-21 10:00N 38°01' W 008°53'0 0.3
2017-Dec-21 09:31N 38°01' W 008°52'0 0.4
2017-Dec-21 09:01N 38°01' W 008°52'0 0.4
2017-Dec-21 08:30N 38°01' W 008°52'0 0.2
2017-Dec-21 08:00N 38°01' W 008°52'1 1.7
2017-Dec-21 07:31N 38°02' W 008°51'0 0.3
2017-Dec-21 07:01N 38°02' W 008°51'0 0.2
2017-Dec-21 06:30N 38°02' W 008°51'1 2.3
2017-Dec-21 06:01N 38°01' W 008°52'2 4.4
2017-Dec-21 05:30N 37°59' W 008°53'2 4.5
2017-Dec-21 05:00N 37°57' W 008°52'0 0.0
2017-Dec-20 14:30N 37°57' W 008°52'3 5.2
2017-Dec-20 14:00N 37°60' W 008°53'2 4.2
2017-Dec-20 13:30N 38°02' W 008°53'0 0.3
2017-Dec-20 13:00N 38°02' W 008°53'0 0.5
2017-Dec-20 12:30N 38°02' W 008°53'2 3.9
2017-Dec-20 12:00N 38°02' W 008°50'3 6.8
2017-Dec-20 11:30N 38°06' W 008°49'0 0.6
2017-Dec-20 11:00N 38°06' W 008°49'0 0.1
2017-Dec-20 10:30N 38°06' W 008°49'1 1.1
2017-Dec-20 10:00N 38°06' W 008°50'0 0.2
2017-Dec-20 09:30N 38°06' W 008°50'1 1.7
2017-Dec-20 09:00N 38°05' W 008°50'1 1.5
2017-Dec-20 08:30N 38°05' W 008°49'0 0.2
2017-Dec-20 08:00N 38°05' W 008°49'0 0.5
2017-Dec-20 07:30N 38°05' W 008°49'3 6.0
2017-Dec-20 07:00N 38°02' W 008°51'4 7.6
2017-Dec-20 06:30N 37°59' W 008°54'2 4.9
2017-Dec-20 06:00N 37°57' W 008°52'0 0.0
2017-Dec-19 15:03N 37°57' W 008°52'0 0.0
2017-Dec-19 15:01N 37°57' W 008°52'0 0.2
2017-Dec-19 14:31N 37°57' W 008°52'3 5.2
2017-Dec-19 14:01N 37°59' W 008°55'3 6.1
2017-Dec-19 13:31N 38°01' W 008°52'0 0.5
2017-Dec-19 13:01N 38°02' W 008°52'1 1.6
2017-Dec-19 12:31N 38°01' W 008°51'3 6.1
2017-Dec-19 12:01N 38°04' W 008°51'0 0.9
2017-Dec-19 11:31N 38°04' W 008°50'0 0.2
2017-Dec-19 11:00N 38°04' W 008°50'1 2.6
2017-Dec-19 10:30N 38°05' W 008°49'2 3.4
2017-Dec-19 10:01N 38°03' W 008°50'2 4.6
2017-Dec-19 09:30N 38°01' W 008°51'1 2.0
2017-Dec-19 09:00N 38°01' W 008°52'0 0.2
2017-Dec-19 08:31N 38°01' W 008°52'1 1.5
2017-Dec-19 08:01N 38°01' W 008°51'2 3.5
2017-Dec-19 07:31N 37°60' W 008°53'0 0.7
2017-Dec-19 07:01N 38°00' W 008°53'2 3.9
2017-Dec-19 06:31N 37°59' W 008°54'2 4.7
2017-Dec-19 06:01N 37°57' W 008°52'0 0.0
2017-Dec-18 14:35N 37°57' W 008°52'0 1.0
2017-Dec-18 14:30N 37°57' W 008°52'1 2.5
2017-Dec-18 14:00N 37°56' W 008°53'3 5.6
2017-Dec-18 13:31N 37°59' W 008°55'3 5.9
2017-Dec-18 13:00N 38°01' W 008°52'0 0.3
2017-Dec-18 12:30N 38°01' W 008°52'0 0.2
2017-Dec-18 12:00N 38°01' W 008°52'1 1.7
2017-Dec-18 11:31N 38°01' W 008°51'5 9.3
2017-Dec-18 11:00N 38°06' W 008°49'611.2
2017-Dec-18 10:31N 38°11' W 008°48'3 6.2
2017-Dec-18 10:01N 38°14' W 008°48'2 1.8
2017-Dec-18 08:41N 38°12' W 008°48'210.6
2017-Dec-18 08:30N 38°10' W 008°48'510.5
2017-Dec-18 08:00N 38°05' W 008°49'0 1.0
2017-Dec-18 07:30N 38°04' W 008°49'3 6.9
2017-Dec-18 07:00N 38°01' W 008°51'5 9.0
2017-Dec-18 06:30N 37°57' W 008°54'  
2017-Dec-15 12:56N 37°57' W 008°52'3 7.8
2017-Dec-15 12:30N 37°55' W 008°50'4 7.6
2017-Dec-15 12:00N 37°57' W 008°54'2 4.6
2017-Dec-15 11:30N 37°59' W 008°55'5 9.1
2017-Dec-15 11:00N 38°02' W 008°51'4 7.7
2017-Dec-15 10:30N 38°05' W 008°50'0 0.2
2017-Dec-15 10:00N 38°05' W 008°50'1 1.8
2017-Dec-15 09:30N 38°05' W 008°49'4 7.9
2017-Dec-15 09:00N 38°01' W 008°51'4 7.8
2017-Dec-15 08:30N 37°59' W 008°55'4 7.7
2017-Dec-15 08:00N 38°01' W 008°51'0 0.1
2017-Dec-15 07:30N 38°01' W 008°51'0 0.2
2017-Dec-15 07:00N 38°01' W 008°51'3 5.0
2017-Dec-15 06:30N 37°59' W 008°54'2 0.1
2017-Dec-14 13:01N 37°57' W 008°52'0 0.0
2017-Dec-14 13:00N 37°57' W 008°52'3 5.1
2017-Dec-14 12:30N 37°59' W 008°55'510.1
2017-Dec-14 12:00N 38°03' W 008°51'2 4.0
2017-Dec-14 11:30N 38°04' W 008°50'0 0.1
2017-Dec-14 11:00N 38°04' W 008°50'1 1.2
2017-Dec-14 10:30N 38°04' W 008°50'0 0.6
2017-Dec-14 10:01N 38°04' W 008°50'0 0.1
2017-Dec-14 09:30N 38°04' W 008°50'1 1.9
2017-Dec-14 09:01N 38°05' W 008°49'0 0.2
2017-Dec-14 08:31N 38°05' W 008°49'0 0.2
2017-Dec-14 08:01N 38°05' W 008°49'1 2.8
2017-Dec-14 07:31N 38°03' W 008°50'4 8.5
2017-Dec-14 07:01N 37°60' W 008°53'3 6.2
2017-Dec-14 06:31N 37°57' W 008°55'2 3.6
2017-Dec-14 06:01N 37°57' W 008°52'0 0.0
2017-Dec-13 13:52N 37°57' W 008°52'1 3.7
2017-Dec-13 13:30N 37°57' W 008°54'3 5.3
2017-Dec-13 13:00N 37°59' W 008°56'5 9.3
2017-Dec-13 12:30N 38°02' W 008°51'4 9.0
2017-Dec-13 12:00N 38°06' W 008°49'511.0
2017-Dec-13 11:30N 38°11' W 008°48'3 6.5
2017-Dec-13 11:00N 38°15' W 008°47'1 0.6
2017-Dec-13 09:37N 38°14' W 008°48'111.1
2017-Dec-13 09:30N 38°13' W 008°48'510.2
2017-Dec-13 09:00N 38°08' W 008°49'5 9.4
2017-Dec-13 08:30N 38°03' W 008°50'3 6.2
2017-Dec-13 08:00N 38°01' W 008°53'0 0.2
2017-Dec-13 07:30N 38°01' W 008°53'0 0.7
2017-Dec-13 07:00N 38°01' W 008°53'3 6.7
2017-Dec-13 06:30N 37°59' W 008°55'3 6.1
2017-Dec-13 06:00N 37°57' W 008°52'0 0.0
2017-Dec-12 13:30N 37°57' W 008°52'0 0.0
2017-Dec-12 13:00N 37°57' W 008°52'2 3.7
2017-Dec-12 12:31N 37°58' W 008°54'510.4
2017-Dec-12 12:01N 38°02' W 008°51'510.9
2017-Dec-12 11:31N 38°08' W 008°50'4 8.5
2017-Dec-12 11:00N 38°12' W 008°48'0 0.3
2017-Dec-12 10:31N 38°12' W 008°48'0 0.3
2017-Dec-12 10:01N 38°12' W 008°48'2 3.4
2017-Dec-12 09:31N 38°14' W 008°48'  

Dump ship's entire track history